createdAt,value
2018-04-19T00:00:53.320Z,50.50
2018-04-19T00:03:21.754Z,50.50
2018-04-19T00:05:50.827Z,51.30
2018-04-19T00:08:19.257Z,51.30
2018-04-19T00:10:47.650Z,51.40
2018-04-19T00:13:16.039Z,51.50
2018-04-19T00:15:44.436Z,51.70
2018-04-19T00:18:12.792Z,51.70
2018-04-19T00:20:41.140Z,51.70
2018-04-19T00:23:09.686Z,51.80
2018-04-19T00:25:38.049Z,52.10
2018-04-19T00:28:06.501Z,52.20
2018-04-19T00:30:35.045Z,52.10
2018-04-19T00:33:04.142Z,52.40
2018-04-19T00:35:33.355Z,52.40
2018-04-19T00:38:01.691Z,52.40
2018-04-19T00:40:30.007Z,52.40
2018-04-19T00:42:58.337Z,52.50
2018-04-19T00:45:26.895Z,51.80
2018-04-19T00:47:55.374Z,52.00
2018-04-19T00:50:23.764Z,51.90
2018-04-19T00:53:09.872Z,52.20
2018-04-19T00:55:38.392Z,52.80
2018-04-19T00:58:07.998Z,53.20
2018-04-19T01:00:37.341Z,52.90
2018-04-19T01:03:05.637Z,52.90
2018-04-19T01:05:33.927Z,52.70
2018-04-19T01:08:02.550Z,52.60
2018-04-19T01:10:30.882Z,52.50
2018-04-19T01:13:00.571Z,52.60
2018-04-19T01:15:29.176Z,52.60
2018-04-19T01:17:57.916Z,53.00
2018-04-19T01:20:26.202Z,53.10
2018-04-19T01:22:54.482Z,53.20
2018-04-19T01:25:22.805Z,52.90
2018-04-19T01:27:51.131Z,52.90
2018-04-19T01:30:19.447Z,52.90
2018-04-19T01:32:47.792Z,52.70
2018-04-19T01:35:16.158Z,52.20
2018-04-19T01:37:44.632Z,52.10
2018-04-19T01:40:12.982Z,52.40
2018-04-19T01:42:42.332Z,52.70
2018-04-19T01:45:10.617Z,52.70
2018-04-19T01:47:38.952Z,52.40
2018-04-19T01:50:08.142Z,52.30
2018-04-19T01:52:37.207Z,52.40
2018-04-19T01:55:05.601Z,52.40
2018-04-19T01:57:33.913Z,52.30
2018-04-19T02:00:02.252Z,52.40
2018-04-19T02:02:31.335Z,52.10
2018-04-19T02:04:59.681Z,52.00
2018-04-19T02:07:28.032Z,51.50
2018-04-19T02:09:56.481Z,51.50
2018-04-19T02:12:25.044Z,51.20
2018-04-19T02:14:54.652Z,51.30
2018-04-19T02:17:23.156Z,51.30
2018-04-19T02:19:51.497Z,51.50
2018-04-19T02:22:19.818Z,53.10
2018-04-19T02:24:48.327Z,53.30
2018-04-19T02:27:16.612Z,52.60
2018-04-19T02:29:44.936Z,52.30
2018-04-19T02:32:13.223Z,52.90
2018-04-19T02:34:41.546Z,53.20
2018-04-19T02:37:09.867Z,53.00
2018-04-19T02:39:39.714Z,53.30
2018-04-19T02:42:08.046Z,53.30
2018-04-19T02:44:36.356Z,52.70
2018-04-19T02:47:05.509Z,53.70
2018-04-19T02:49:33.800Z,53.70
2018-04-19T02:52:03.646Z,53.70
2018-04-19T02:54:32.136Z,53.70
2018-04-19T02:57:00.522Z,53.40
2018-04-19T02:59:28.886Z,53.10
2018-04-19T03:01:57.365Z,53.20
2018-04-19T03:04:26.447Z,54.20
2018-04-19T03:06:54.850Z,54.20
2018-04-19T03:09:23.416Z,54.50
2018-04-19T03:11:52.500Z,53.60
2018-04-19T03:14:20.923Z,53.60
2018-04-19T03:16:49.267Z,53.50
2018-04-19T03:19:19.447Z,53.20
2018-04-19T03:21:47.792Z,53.20
2018-04-19T03:24:16.115Z,53.30
2018-04-19T03:26:44.507Z,53.20
2018-04-19T03:29:12.816Z,53.90
2018-04-19T03:31:41.170Z,54.20
2018-04-19T03:34:09.513Z,53.50
2018-04-19T03:36:38.002Z,54.20
2018-04-19T03:39:06.290Z,54.10
2018-04-19T03:41:34.705Z,53.80
2018-04-19T03:44:03.793Z,53.90
2018-04-19T03:46:32.936Z,54.00
2018-04-19T03:49:02.797Z,53.50
2018-04-19T03:51:32.994Z,53.30
2018-04-19T03:54:01.307Z,53.20
2018-04-19T03:56:29.760Z,53.80
2018-04-19T03:58:58.298Z,53.60
2018-04-19T04:01:26.608Z,53.80
2018-04-19T04:03:54.893Z,53.80
2018-04-19T04:06:23.208Z,53.90
2018-04-19T04:08:51.582Z,53.40
2018-04-19T04:11:19.947Z,54.10
2018-04-19T04:13:48.998Z,55.00
2018-04-19T04:19:45.599Z,55.10
2018-04-19T04:22:32.944Z,54.30
2018-04-19T04:25:01.392Z,54.30
2018-04-19T04:27:29.678Z,54.40
2018-04-19T04:29:58.925Z,54.40
2018-04-19T04:32:27.425Z,54.30
2018-04-19T04:34:55.699Z,54.30
2018-04-19T04:37:24.058Z,54.40
2018-04-19T04:39:52.518Z,54.50
2018-04-19T04:42:22.774Z,54.40
2018-04-19T04:44:51.303Z,54.40
2018-04-19T04:47:20.576Z,54.30
2018-04-19T04:49:49.701Z,54.70
2018-04-19T04:52:18.317Z,54.70
2018-04-19T04:54:46.646Z,54.50
2018-04-19T04:57:15.757Z,54.00
2018-04-19T04:59:45.004Z,53.70
2018-04-19T05:02:13.300Z,53.70
2018-04-19T05:04:41.822Z,53.90
2018-04-19T05:07:11.023Z,53.40
2018-04-19T05:09:39.409Z,53.40
2018-04-19T05:12:07.731Z,53.10
2018-04-19T05:14:36.202Z,53.20
2018-04-19T05:17:05.335Z,53.00
2018-04-19T05:19:34.618Z,53.70
2018-04-19T05:22:03.414Z,53.20
2018-04-19T05:24:32.507Z,52.70
2018-04-19T05:27:01.609Z,52.40
2018-04-19T05:29:30.698Z,52.00
2018-04-19T05:31:59.927Z,52.60
2018-04-19T05:34:28.397Z,52.20
2018-04-19T05:36:56.768Z,52.30
2018-04-19T05:39:25.857Z,52.00
2018-04-19T05:41:54.959Z,51.90
2018-04-19T05:44:24.832Z,52.30
2018-04-19T05:46:53.224Z,52.20
2018-04-19T05:49:21.491Z,52.90
2018-04-19T05:51:50.089Z,52.90
2018-04-19T05:54:18.418Z,52.60
2018-04-19T05:56:46.752Z,52.10
2018-04-19T05:59:15.299Z,51.90
2018-04-19T06:01:43.679Z,52.60
2018-04-19T06:04:12.139Z,51.60
2018-04-19T06:06:40.433Z,51.30
2018-04-19T06:09:08.972Z,50.80
2018-04-19T06:11:38.169Z,51.00
2018-04-19T06:14:07.292Z,50.10
2018-04-19T06:16:35.613Z,50.10
2018-04-19T06:19:04.141Z,49.90
2018-04-19T06:21:33.866Z,48.70
2018-04-19T06:24:02.603Z,48.80
2018-04-19T06:26:31.951Z,48.70
2018-04-19T06:29:00.247Z,48.60
2018-04-19T06:31:28.582Z,48.60
2018-04-19T06:33:57.862Z,47.80
2018-04-19T06:36:27.033Z,47.40
2018-04-19T06:38:55.579Z,47.30
2018-04-19T06:41:24.193Z,47.60
2018-04-19T06:43:52.550Z,47.30
2018-04-19T06:46:20.962Z,46.80
2018-04-19T06:48:49.337Z,46.40
2018-04-19T06:51:17.797Z,46.20
2018-04-19T06:53:46.847Z,46.10
2018-04-19T06:56:15.926Z,45.30
2018-04-19T06:58:45.506Z,45.20
2018-04-19T07:01:13.793Z,44.40
2018-04-19T07:03:42.307Z,44.80
2018-04-19T07:06:11.534Z,45.00
2018-04-19T07:08:39.842Z,45.00
2018-04-19T07:11:08.253Z,44.90
2018-04-19T07:13:37.324Z,44.40
2018-04-19T07:16:05.647Z,44.30
2018-04-19T07:18:34.048Z,44.30
2018-04-19T07:21:02.453Z,44.60
2018-04-19T07:23:30.833Z,44.10
2018-04-19T07:25:59.306Z,44.10
2018-04-19T07:28:27.628Z,44.10
2018-04-19T07:30:56.744Z,42.80
2018-04-19T07:33:25.146Z,42.80
2018-04-19T07:35:53.498Z,42.70
2018-04-19T07:38:21.817Z,42.20
2018-04-19T07:40:50.142Z,41.90
2018-04-19T07:43:18.463Z,39.90
2018-04-19T07:45:46.771Z,39.30
2018-04-19T07:48:15.147Z,39.10
2018-04-19T07:50:43.498Z,37.90
2018-04-19T07:53:11.807Z,37.50
2018-04-19T07:55:40.927Z,37.40
2018-04-19T07:58:10.469Z,37.10
2018-04-19T08:00:38.893Z,37.10
2018-04-19T08:03:07.275Z,37.40
2018-04-19T08:05:36.377Z,37.00
2018-04-19T08:08:05.523Z,37.70
2018-04-19T08:10:33.915Z,37.70
2018-04-19T08:13:02.241Z,36.50
2018-04-19T08:15:30.607Z,36.60
2018-04-19T08:17:59.002Z,36.80
2018-04-19T08:20:27.333Z,38.30
2018-04-19T08:22:55.639Z,37.00
2018-04-19T08:25:24.793Z,35.80
2018-04-19T08:27:53.199Z,35.80
2018-04-19T08:30:21.607Z,34.50
2018-04-19T08:32:49.949Z,34.90
2018-04-19T08:35:19.098Z,33.60
2018-04-19T08:37:47.498Z,33.60
2018-04-19T08:40:15.783Z,33.50
2018-04-19T08:42:44.150Z,33.00
2018-04-19T08:45:12.612Z,32.90
2018-04-19T08:47:41.059Z,33.30
2018-04-19T08:50:10.291Z,32.00
2018-04-19T08:52:38.704Z,31.90
2018-04-19T08:55:07.013Z,31.40
2018-04-19T08:57:37.253Z,32.00
2018-04-19T09:00:05.733Z,31.90
2018-04-19T09:02:34.099Z,32.60
2018-04-19T09:05:02.458Z,31.30
2018-04-19T09:07:31.534Z,33.40
2018-04-19T09:09:59.824Z,33.30
2018-04-19T09:12:28.164Z,33.80
2018-04-19T09:14:56.578Z,34.20
2018-04-19T09:17:25.269Z,34.10
2018-04-19T09:19:53.645Z,33.80
2018-04-19T09:22:22.338Z,33.40
2018-04-19T09:24:50.798Z,33.90
2018-04-19T09:27:19.240Z,34.30
2018-04-19T09:29:47.523Z,34.30
2018-04-19T09:32:15.830Z,34.20
2018-04-19T09:34:44.217Z,34.20
2018-04-19T09:37:12.659Z,34.30
2018-04-19T09:39:41.135Z,33.80
2018-04-19T09:42:09.700Z,30.70
2018-04-19T09:44:38.929Z,33.20
2018-04-19T09:47:07.231Z,33.30
2018-04-19T09:49:35.554Z,30.30
2018-04-19T09:52:04.158Z,27.40
2018-04-19T09:54:32.712Z,26.60
2018-04-19T09:57:01.907Z,28.10
2018-04-19T09:59:32.138Z,26.60
2018-04-19T10:02:04.498Z,26.70
2018-04-19T10:04:34.746Z,27.20
2018-04-19T10:07:03.056Z,27.10
2018-04-19T10:09:31.562Z,26.20
2018-04-19T10:12:00.092Z,25.80
2018-04-19T10:14:28.567Z,25.60
2018-04-19T10:16:56.929Z,22.90
2018-04-19T10:19:26.090Z,22.10
2018-04-19T10:21:54.400Z,22.10
2018-04-19T10:24:23.518Z,22.80
2018-04-19T10:26:51.790Z,22.80
2018-04-19T10:29:20.103Z,22.50
2018-04-19T10:31:48.423Z,22.90
2018-04-19T10:34:17.664Z,20.60
2018-04-19T10:36:47.197Z,22.20
2018-04-19T10:39:15.764Z,22.30
2018-04-19T10:41:44.093Z,20.80
2018-04-19T10:44:13.293Z,20.20
2018-04-19T10:46:41.607Z,20.20
2018-04-19T10:49:10.053Z,21.70
2018-04-19T10:51:39.125Z,20.60
2018-04-19T10:54:07.531Z,20.60
2018-04-19T10:56:36.654Z,20.10
2018-04-19T10:59:05.000Z,20.10
2018-04-19T11:01:33.385Z,20.20
2018-04-19T11:04:01.716Z,19.00
2018-04-19T11:06:30.004Z,19.20
2018-04-19T11:08:59.787Z,18.40
2018-04-19T11:11:28.149Z,18.40
2018-04-19T11:13:56.593Z,18.20
2018-04-19T11:16:24.918Z,17.50
2018-04-19T11:18:53.514Z,19.00
2018-04-19T11:21:21.815Z,17.60
2018-04-19T11:23:51.014Z,18.70
2018-04-19T11:26:20.114Z,17.60
2018-04-19T11:28:48.499Z,17.60
2018-04-19T11:31:17.603Z,18.80
2018-04-19T11:33:45.938Z,18.80
2018-04-19T11:36:14.277Z,18.30
2018-04-19T11:38:42.648Z,18.30
2018-04-19T11:41:12.687Z,18.50
2018-04-19T11:43:41.011Z,18.40
2018-04-19T11:46:10.167Z,17.90
2018-04-19T11:48:38.623Z,17.90
2018-04-19T11:51:06.992Z,18.30
2018-04-19T11:53:35.442Z,17.90
2018-04-19T11:56:04.547Z,18.50
2018-04-19T11:58:33.879Z,18.90
2018-04-19T12:01:02.313Z,18.90
2018-04-19T12:03:32.125Z,17.50
2018-04-19T12:06:01.286Z,17.90
2018-04-19T12:08:29.568Z,17.90
2018-04-19T12:10:57.930Z,17.10
2018-04-19T12:13:26.592Z,17.20
2018-04-19T12:15:56.254Z,17.10
2018-04-19T12:18:24.716Z,17.10
2018-04-19T12:20:53.534Z,18.00
2018-04-19T12:23:22.670Z,17.60
2018-04-19T12:25:50.995Z,17.70
2018-04-19T12:28:19.325Z,16.80
2018-04-19T12:30:47.698Z,17.90
2018-04-19T12:33:16.072Z,18.20
2018-04-19T12:35:44.766Z,18.80
2018-04-19T12:38:13.107Z,17.70
2018-04-19T12:40:41.444Z,17.90
2018-04-19T12:43:09.780Z,17.60
2018-04-19T12:45:38.911Z,16.90
2018-04-19T12:48:07.207Z,16.90
2018-04-19T12:50:35.555Z,16.60
2018-04-19T12:53:04.045Z,17.00
2018-04-19T12:55:32.419Z,16.60
2018-04-19T12:58:01.799Z,17.40
2018-04-19T13:00:31.046Z,17.60
2018-04-19T13:02:59.447Z,17.60
2018-04-19T13:05:27.821Z,16.90
2018-04-19T13:07:56.224Z,16.60
2018-04-19T13:10:25.415Z,17.90
2018-04-19T13:12:53.867Z,17.90
2018-04-19T13:15:22.589Z,17.10
2018-04-19T13:17:51.684Z,17.50
2018-04-19T13:20:21.878Z,17.20
2018-04-19T13:22:50.245Z,17.10
2018-04-19T13:25:18.571Z,16.30
2018-04-19T13:27:47.850Z,18.00
2018-04-19T13:30:16.249Z,18.00
2018-04-19T13:32:44.770Z,17.40
2018-04-19T13:35:13.375Z,18.20
2018-04-19T13:37:41.789Z,18.10
2018-04-19T13:40:11.123Z,18.00
2018-04-19T13:42:39.492Z,18.00
2018-04-19T13:45:07.931Z,18.60
2018-04-19T13:47:36.574Z,18.40
2018-04-19T13:50:04.922Z,17.70
2018-04-19T13:52:35.240Z,17.60
2018-04-19T13:55:04.656Z,17.20
2018-04-19T13:57:33.077Z,17.20
2018-04-19T14:00:01.603Z,16.80
2018-04-19T14:02:30.844Z,17.70
2018-04-19T14:04:59.473Z,17.70
2018-04-19T14:07:27.798Z,17.40
2018-04-19T14:09:56.246Z,16.50
2018-04-19T14:12:25.460Z,15.90
2018-04-19T14:14:53.990Z,15.90
2018-04-19T14:17:22.410Z,16.40
2018-04-19T14:19:50.890Z,16.90
2018-04-19T14:22:19.345Z,17.20
2018-04-19T14:24:47.754Z,16.40
2018-04-19T14:27:16.262Z,15.90
2018-04-19T14:29:44.840Z,16.20
2018-04-19T14:32:14.028Z,16.40
2018-04-19T14:34:42.423Z,16.30
2018-04-19T14:37:10.901Z,15.70
2018-04-19T14:39:39.307Z,17.00
2018-04-19T14:42:07.863Z,17.70
2018-04-19T14:44:36.191Z,17.80
2018-04-19T14:47:04.765Z,18.40
2018-04-19T14:49:33.075Z,18.90
2018-04-19T14:52:01.632Z,19.00
2018-04-19T14:54:30.040Z,19.10
2018-04-19T14:56:58.364Z,18.70
2018-04-19T14:59:26.736Z,18.30
2018-04-19T15:01:55.076Z,18.50
2018-04-19T15:04:23.736Z,18.70
2018-04-19T15:06:52.999Z,18.90
2018-04-19T15:09:21.391Z,18.90
2018-04-19T15:11:50.634Z,18.80
2018-04-19T15:14:19.003Z,18.80
2018-04-19T15:16:48.284Z,18.50
2018-04-19T15:19:16.697Z,18.50
2018-04-19T15:21:45.035Z,17.70
2018-04-19T15:24:13.457Z,17.80
2018-04-19T15:26:42.048Z,16.90
2018-04-19T15:29:10.345Z,16.90
2018-04-19T15:31:38.744Z,16.70
2018-04-19T15:34:07.177Z,16.90
2018-04-19T15:36:35.483Z,15.90
2018-04-19T15:39:04.167Z,16.10
2018-04-19T15:41:32.518Z,15.40
2018-04-19T15:44:00.881Z,15.90
2018-04-19T15:46:29.372Z,16.70
2018-04-19T15:48:57.813Z,16.10
2018-04-19T15:51:26.343Z,15.80
2018-04-19T15:53:54.934Z,15.40
2018-04-19T15:56:23.344Z,15.10
2018-04-19T15:58:51.804Z,15.10
2018-04-19T16:01:20.266Z,15.30
2018-04-19T16:03:48.632Z,15.40
2018-04-19T16:06:17.011Z,15.60
2018-04-19T16:08:45.355Z,15.70
2018-04-19T16:11:14.508Z,15.90
2018-04-19T16:13:42.947Z,15.90
2018-04-19T16:16:11.590Z,15.50
2018-04-19T16:18:40.973Z,15.30
2018-04-19T16:21:09.372Z,15.30
2018-04-19T16:23:37.759Z,15.00
2018-04-19T16:26:07.305Z,14.60
2018-04-19T16:28:35.800Z,14.50
2018-04-19T16:31:04.289Z,14.50
2018-04-19T16:33:32.629Z,14.70
2018-04-19T16:36:01.719Z,15.00
2018-04-19T16:38:30.064Z,15.00
2018-04-19T16:40:58.583Z,14.70
2018-04-19T16:43:26.966Z,15.40
2018-04-19T16:45:55.525Z,15.10
2018-04-19T16:48:23.939Z,15.10
2018-04-19T16:50:52.375Z,16.50
2018-04-19T16:53:20.908Z,18.20
2018-04-19T16:55:49.411Z,17.20
2018-04-19T16:58:19.238Z,17.40
2018-04-19T17:00:47.583Z,17.30
2018-04-19T17:03:16.080Z,17.20
2018-04-19T17:05:45.397Z,16.90
2018-04-19T17:08:14.659Z,17.30
2018-04-19T17:10:43.206Z,17.30
2018-04-19T17:13:11.703Z,17.20
2018-04-19T17:15:40.198Z,16.90
2018-04-19T17:18:08.612Z,17.50
2018-04-19T17:20:37.005Z,17.10
2018-04-19T17:23:06.102Z,17.50
2018-04-19T17:25:35.203Z,16.70
2018-04-19T17:28:03.709Z,16.70
2018-04-19T17:30:32.149Z,17.80
2018-04-19T17:33:01.314Z,17.60
2018-04-19T17:35:29.831Z,17.60
2018-04-19T17:37:59.443Z,19.20
2018-04-19T17:40:27.910Z,19.20
2018-04-19T17:42:56.292Z,19.80
2018-04-19T17:45:24.787Z,19.60
2018-04-19T17:47:53.283Z,20.70
2018-04-19T17:50:21.822Z,21.30
2018-04-19T17:52:50.926Z,21.80
2018-04-19T17:55:19.467Z,21.80
2018-04-19T17:57:48.039Z,22.50
2018-04-19T18:00:17.507Z,22.80
2018-04-19T18:02:46.324Z,22.80
2018-04-19T18:05:15.060Z,22.80
2018-04-19T18:07:44.508Z,23.40
2018-04-19T18:10:13.096Z,23.40
2018-04-19T18:12:41.965Z,23.70
2018-04-19T18:15:10.380Z,23.60
2018-04-19T18:17:39.009Z,24.30
2018-04-19T18:20:07.446Z,24.50
2018-04-19T18:22:36.785Z,24.80
2018-04-19T18:25:05.140Z,24.90
2018-04-19T18:27:34.332Z,25.20
2018-04-19T18:30:03.626Z,25.50
2018-04-19T18:32:32.740Z,26.30
2018-04-19T18:35:02.028Z,26.20
2018-04-19T18:37:32.553Z,26.60
2018-04-19T18:40:03.110Z,26.50
2018-04-19T18:42:31.468Z,26.50
2018-04-19T18:44:59.904Z,26.60
2018-04-19T18:47:28.461Z,26.60
2018-04-19T18:49:56.949Z,26.90
2018-04-19T18:52:25.575Z,27.70
2018-04-19T18:54:53.973Z,28.90
2018-04-19T18:57:22.587Z,29.00
2018-04-19T18:59:51.162Z,28.80
2018-04-19T19:02:19.533Z,29.30
2018-04-19T19:04:48.001Z,30.00
2018-04-19T19:07:16.408Z,30.40
2018-04-19T19:09:44.898Z,31.00
2018-04-19T19:12:13.338Z,30.80
2018-04-19T19:14:41.817Z,30.80
2018-04-19T19:17:27.815Z,30.10
2018-04-19T19:20:10.220Z,31.10
2018-04-19T19:22:38.565Z,31.60
2018-04-19T19:25:07.222Z,32.00
2018-04-19T19:27:35.869Z,31.90
2018-04-19T19:30:04.292Z,31.70
2018-04-19T19:32:32.828Z,32.40
2018-04-19T19:35:01.322Z,32.70
2018-04-19T19:37:30.663Z,33.50
2018-04-19T19:39:59.243Z,33.40
2018-04-19T19:42:27.690Z,33.90
2018-04-19T19:44:56.034Z,34.30
2018-04-19T19:47:25.200Z,33.00
2018-04-19T19:49:53.605Z,32.90
2018-04-19T19:52:22.065Z,32.70
2018-04-19T19:54:50.493Z,33.20
2018-04-19T19:57:19.048Z,34.50
2018-04-19T19:59:48.207Z,34.60
2018-04-19T20:02:16.736Z,34.60
2018-04-19T20:04:45.881Z,35.20
2018-04-19T20:07:14.551Z,35.20
2018-04-19T20:09:42.881Z,34.90
2018-04-19T20:12:11.319Z,35.40
2018-04-19T20:14:39.654Z,36.00
2018-04-19T20:17:08.799Z,36.40
2018-04-19T20:19:37.233Z,36.40
2018-04-19T20:22:06.351Z,36.60
2018-04-19T20:24:34.672Z,36.60
2018-04-19T20:27:02.997Z,36.40
2018-04-19T20:29:31.696Z,36.60
2018-04-19T20:32:00.451Z,36.80
2018-04-19T20:34:29.747Z,37.50
2018-04-19T20:36:58.947Z,37.80
2018-04-19T20:39:28.148Z,37.60
2018-04-19T20:41:57.292Z,37.70
2018-04-19T20:44:25.708Z,37.60
2018-04-19T20:46:55.227Z,38.10
2018-04-19T20:49:23.612Z,38.70
2018-04-19T20:51:51.981Z,38.00
2018-04-19T20:54:20.311Z,38.50
2018-04-19T20:56:48.710Z,38.90
2018-04-19T20:59:17.073Z,39.00
2018-04-19T21:01:45.407Z,38.90
2018-04-19T21:04:13.811Z,38.90
2018-04-19T21:06:42.152Z,39.10
2018-04-19T21:09:11.380Z,39.40
2018-04-19T21:11:39.915Z,39.40
2018-04-19T21:14:08.987Z,39.40
2018-04-19T21:16:37.338Z,39.50
2018-04-19T21:19:05.669Z,39.50
2018-04-19T21:21:34.916Z,40.00
2018-04-19T21:24:03.294Z,39.70
2018-04-19T21:26:32.009Z,40.60
2018-04-19T21:29:00.404Z,40.00
2018-04-19T21:31:28.742Z,40.20
2018-04-19T21:33:57.194Z,40.00
2018-04-19T21:36:25.622Z,40.80
2018-04-19T21:38:54.126Z,40.00
2018-04-19T21:41:22.599Z,39.90
2018-04-19T21:43:50.909Z,39.80
2018-04-19T21:46:21.136Z,40.30
2018-04-19T21:48:49.468Z,40.20
2018-04-19T21:51:17.833Z,40.40
2018-04-19T21:53:46.548Z,40.40
2018-04-19T21:56:15.086Z,41.10
2018-04-19T21:58:43.453Z,42.20
2018-04-19T22:01:11.914Z,41.70
2018-04-19T22:03:40.316Z,42.00
2018-04-19T22:06:08.686Z,42.80
2018-04-19T22:08:37.189Z,42.00
2018-04-19T22:11:05.639Z,42.20
2018-04-19T22:13:33.967Z,41.90
2018-04-19T22:16:03.386Z,41.40
2018-04-19T22:18:31.757Z,41.60
2018-04-19T22:21:00.331Z,41.60
2018-04-19T22:23:28.632Z,41.30
2018-04-19T22:25:56.974Z,40.90
2018-04-19T22:28:26.463Z,41.00
2018-04-19T22:30:54.819Z,40.90
2018-04-19T22:33:23.114Z,41.00
2018-04-19T22:35:51.423Z,40.90
2018-04-19T22:38:19.908Z,40.80
2018-04-19T22:40:48.253Z,40.90
2018-04-19T22:43:16.602Z,40.90
2018-04-19T22:45:45.639Z,40.90
2018-04-19T22:48:13.966Z,40.90
2018-04-19T22:50:42.412Z,40.90
2018-04-19T22:53:11.722Z,40.90
2018-04-19T22:55:41.958Z,40.90
2018-04-19T22:58:12.017Z,40.90
2018-04-19T23:00:42.052Z,41.00
2018-04-19T23:03:10.506Z,41.00
2018-04-19T23:05:38.827Z,41.30
2018-04-19T23:08:07.289Z,40.90
2018-04-19T23:10:35.834Z,41.10
2018-04-19T23:13:04.152Z,41.20
2018-04-19T23:15:32.597Z,41.00
2018-04-19T23:18:00.948Z,41.00
2018-04-19T23:20:29.325Z,41.00
2018-04-19T23:22:57.827Z,41.10
2018-04-19T23:25:26.238Z,41.00
2018-04-19T23:27:54.561Z,41.10
2018-04-19T23:30:22.862Z,41.10
2018-04-19T23:32:51.201Z,41.00
2018-04-19T23:35:19.533Z,41.00
2018-04-19T23:37:47.884Z,41.30
2018-04-19T23:40:16.979Z,40.80
2018-04-19T23:42:46.109Z,41.30
2018-04-19T23:45:15.799Z,41.20
2018-04-19T23:47:44.333Z,41.20
2018-04-19T23:50:12.735Z,41.50
2018-04-19T23:52:41.072Z,41.40
2018-04-19T23:55:09.448Z,41.60
2018-04-19T23:57:37.728Z,41.40
